Time;durP1;ratioP1;P1;durP2;ratioP2;P2;SDS_P1;SDS_P2;PMS_P1;PMS_P2;Temp;Humidity;BMP_temperature;BMP_pressure;BME280_temperature;BME280_humidity;BME280_pressure;Samples;Min_cycle;Max_cycle;Signal;HPM_P1;HPM_P2
2023/02/11 00:01:38;;;;;;;16.08;7.40;;;;;;;-2.34;51.98;94188.41;6213577;23;20041;-77
2023/02/11 00:04:05;;;;;;;16.00;7.07;;;;;;;-2.31;51.80;94193.19;6186966;23;20008;-77
2023/02/11 00:06:33;;;;;;;15.05;7.55;;;;;;;-2.28;51.58;94188.69;6212597;23;20017;-77
2023/02/11 00:08:58;;;;;;;14.52;7.10;;;;;;;-2.28;51.58;94183.56;6213484;23;20472;-77
2023/02/11 00:11:29;;;;;;;17.85;8.18;;;;;;;-2.28;52.26;94183.56;6186439;23;20051;-77
2023/02/11 00:13:58;;;;;;;18.63;8.45;;;;;;;-2.29;52.98;94185.34;6213953;23;20340;-77
2023/02/11 00:16:24;;;;;;;17.42;8.27;;;;;;;-2.32;53.35;94183.09;6211512;23;20099;-77
2023/02/11 00:18:51;;;;;;;16.85;8.35;;;;;;;-2.31;53.50;94188.06;6213793;23;20355;-78
2023/02/11 00:21:20;;;;;;;15.40;8.02;;;;;;;-2.31;53.20;94185.50;6212716;23;20051;-77
2023/02/11 00:23:46;;;;;;;17.40;7.13;;;;;;;-2.30;53.57;94183.72;6213514;23;20440;-77
2023/02/11 00:26:21;;;;;;;18.08;8.23;;;;;;;-2.32;53.20;94178.78;6212391;23;20011;-77
2023/02/11 00:28:48;;;;;;;17.00;6.97;;;;;;;-2.35;52.23;94175.72;6211374;23;20039;-77
2023/02/11 00:31:16;;;;;;;14.23;7.20;;;;;;;-2.32;52.49;94181.34;6212656;23;20009;-77
2023/02/11 00:33:42;;;;;;;14.80;7.07;;;;;;;-2.32;52.54;94181.34;6211632;23;20043;-77
2023/02/11 00:36:12;;;;;;;17.92;7.25;;;;;;;-2.34;52.72;94179.91;6212787;23;20004;-77
2023/02/11 00:38:38;;;;;;;16.15;7.15;;;;;;;-2.32;52.88;94177.97;6213329;23;20016;-77
2023/02/11 00:41:04;;;;;;;13.90;6.43;;;;;;;-2.34;51.83;94175.56;6210263;23;20428;-78
2023/02/11 00:43:30;;;;;;;13.55;6.50;;;;;;;-2.37;50.97;94165.63;6211484;23;20083;-77
2023/02/11 00:45:56;;;;;;;12.02;6.13;;;;;;;-2.38;50.28;94169.19;6213120;23;20000;-77
2023/02/11 00:48:22;;;;;;;13.23;6.72;;;;;;;-2.39;50.33;94167.56;6211560;23;20016;-77
2023/02/11 00:50:47;;;;;;;13.90;6.15;;;;;;;-2.39;49.38;94157.28;6212609;23;20502;-77
2023/02/11 00:53:13;;;;;;;12.95;5.85;;;;;;;-2.39;49.11;94165.00;6213050;23;20058;-77
2023/02/11 00:55:39;;;;;;;14.23;5.80;;;;;;;-2.38;48.70;94166.59;6211121;23;20075;-77
2023/02/11 00:58:04;;;;;;;10.93;5.25;;;;;;;-2.37;47.94;94160.50;6212842;23;20064;-77
2023/02/11 01:00:30;;;;;;;12.88;5.55;;;;;;;-2.38;48.09;94164.03;6212589;23;20017;-77
2023/02/11 01:02:55;;;;;;;13.68;5.68;;;;;;;-2.40;47.55;94160.84;6210767;23;20221;-77
2023/02/11 01:05:21;;;;;;;11.45;5.47;;;;;;;-2.40;47.57;94155.72;6213024;23;20011;-77
2023/02/11 01:07:47;;;;;;;11.13;5.63;;;;;;;-2.41;48.17;94159.25;6213053;23;20040;-77
2023/02/11 01:10:15;;;;;;;11.68;5.60;;;;;;;-2.41;47.98;94159.25;6210791;23;20000;-77
2023/02/11 01:12:40;;;;;;;12.00;5.57;;;;;;;-2.39;48.60;94165.00;6212688;23;20008;-77
2023/02/11 01:15:10;;;;;;;14.98;6.20;;;;;;;-2.39;48.44;94162.44;6211568;23;20000;-77
2023/02/11 01:17:35;;;;;;;13.73;6.18;;;;;;;-2.34;48.89;94170.44;6211961;23;20096;-77
2023/02/11 01:20:06;;;;;;;10.93;5.65;;;;;;;-2.36;48.77;94156.19;6212902;23;20021;-77
2023/02/11 01:22:33;;;;;;;13.10;6.07;;;;;;;-2.37;49.17;94163.06;6210299;23;20017;-77
2023/02/11 01:24:59;;;;;;;12.68;6.03;;;;;;;-2.38;49.64;94161.47;6210942;23;20043;-77
2023/02/11 01:27:25;;;;;;;12.73;6.00;;;;;;;-2.45;49.29;94152.84;6211518;23;20031;-77
2023/02/11 01:29:50;;;;;;;15.40;5.90;;;;;;;-2.42;49.15;94157.63;6212802;23;20016;-77
2023/02/11 01:32:16;;;;;;;10.93;5.28;;;;;;;-2.43;49.16;94155.22;6212167;23;20488;-77
2023/02/11 01:34:41;;;;;;;14.15;5.80;;;;;;;-2.45;50.00;94152.84;6186340;23;20058;-77
2023/02/11 01:37:07;;;;;;;11.90;5.88;;;;;;;-2.45;50.30;94152.84;6161426;23;20114;-77
2023/02/11 01:39:34;;;;;;;12.75;5.43;;;;;;;-2.45;49.97;94152.84;6186036;23;20009;-77
2023/02/11 01:42:00;;;;;;;12.98;5.85;;;;;;;-2.47;50.06;94154.00;6213032;23;20017;-77
2023/02/11 01:44:29;;;;;;;10.68;4.90;;;;;;;-2.44;50.29;94153.66;6185821;23;20009;-77
2023/02/11 01:46:55;;;;;;;10.98;5.45;;;;;;;-2.48;49.73;94139.56;6212079;23;20009;-77
2023/02/11 01:49:29;;;;;;;12.45;5.47;;;;;;;-2.46;49.85;94147.88;6212672;23;20004;-77
2023/02/11 01:52:02;;;;;;;10.27;4.85;;;;;;;-2.47;49.42;94148.84;6212914;23;20005;-77
2023/02/11 01:57:24;;;;;;;11.15;5.35;;;;;;;-2.50;49.72;94144.84;6185138;23;20025;-77
2023/02/11 01:59:59;;;;;;;9.82;5.25;;;;;;;-2.47;48.74;94139.38;6212627;23;20403;-77
2023/02/11 02:02:32;;;;;;;8.98;4.63;;;;;;;-2.48;49.53;94140.34;6184892;23;20012;-77
2023/02/11 02:05:16;;;;;;;11.63;5.13;;;;;;;-2.52;49.31;94137.31;6185814;23;20054;-77
2023/02/11 02:07:51;;;;;;;10.95;4.68;;;;;;;-2.52;49.68;94137.31;6212696;23;20009;-77
2023/02/11 02:10:21;;;;;;;12.43;4.93;;;;;;;-2.53;49.90;94137.47;6185871;23;20448;-77
2023/02/11 02:12:47;;;;;;;10.20;4.72;;;;;;;-2.56;50.35;94145.50;6185301;23;20357;-77
2023/02/11 02:15:28;;;;;;;12.55;4.82;;;;;;;-2.59;50.56;94131.25;6212198;23;20031;-77
2023/02/11 02:18:32;;;;;;;10.82;5.10;;;;;;;-2.58;48.91;94132.84;6212450;23;20538;-77
2023/02/11 02:21:25;;;;;;;10.23;5.13;;;;;;;-2.61;48.60;94127.25;6151946;23;20407;-77
2023/02/11 02:24:19;;;;;;;9.43;4.57;;;;;;;-2.64;48.91;94128.38;6212287;23;20008;-77
2023/02/11 02:27:02;;;;;;;11.48;4.90;;;;;;;-2.66;48.82;94122.59;6212336;23;20040;-77
2023/02/11 02:29:40;;;;;;;9.70;4.95;;;;;;;-2.66;48.57;94116.69;6185923;23;20042;-77
2023/02/11 02:32:37;;;;;;;9.05;4.57;;;;;;;-2.69;48.66;94119.59;6212201;23;20017;-77
2023/02/11 02:35:13;;;;;;;10.48;5.35;;;;;;;-2.75;48.08;94110.78;6186082;23;20385;-77
2023/02/11 02:37:42;;;;;;;12.35;5.25;;;;;;;-2.69;47.71;94115.25;6213368;23;20352;-77
2023/02/11 02:40:20;;;;;;;11.73;5.22;;;;;;;-2.74;47.50;94105.50;6213954;23;20079;-77
2023/02/11 02:42:48;;;;;;;14.30;4.43;;;;;;;-2.67;47.64;94108.19;6214316;23;20344;-77
2023/02/11 02:45:14;;;;;;;9.50;4.63;;;;;;;-2.67;47.20;94108.19;6187387;23;20080;-77
2023/02/11 02:47:40;;;;;;;10.45;4.25;;;;;;;-2.66;46.61;94099.53;6213400;23;20048;-77
2023/02/11 02:50:07;;;;;;;9.43;4.63;;;;;;;-2.67;47.39;94099.72;6214196;23;20008;-77
2023/02/11 02:53:00;;;;;;;10.48;4.40;;;;;;;-2.66;48.07;94098.75;6162687;23;20016;-77
2023/02/11 02:55:25;;;;;;;;;;;;;;;-2.66;47.86;94094.41;6214735;23;20344;-77
2023/02/11 02:58:18;;;;;;;8.80;3.92;;;;;;;-2.68;48.35;94090.41;6213962;23;19961;-77
2023/02/11 03:00:47;;;;;;;7.40;4.13;;;;;;;-2.72;48.50;94095.09;6187026;23;20009;-77
2023/02/11 03:03:18;;;;;;;9.80;5.07;;;;;;;-2.72;47.92;94089.97;6214113;23;20421;-77
2023/02/11 03:06:06;;;;;;;10.13;5.10;;;;;;;-2.77;47.63;94082.78;6213575;23;20120;-77
2023/02/11 03:08:45;;;;;;;10.23;4.70;;;;;;;-2.76;47.64;94074.09;6214267;23;20271;-77
2023/02/11 03:11:14;;;;;;;11.15;5.00;;;;;;;-2.72;48.12;94080.50;6187462;23;20021;-77
2023/02/11 03:13:42;;;;;;;10.15;4.93;;;;;;;-2.71;47.62;94078.72;6214064;23;20013;-77
2023/02/11 03:16:20;;;;;;;12.15;4.97;;;;;;;-2.68;47.29;94075.03;6186844;23;20012;-77
2023/02/11 03:18:50;;;;;;;9.75;4.43;;;;;;;-2.66;47.15;94078.22;6214440;23;20008;-77
2023/02/11 03:21:17;;;;;;;9.52;4.53;;;;;;;-2.67;46.99;94071.53;6213524;23;20313;-77
2023/02/11 03:23:51;;;;;;;9.52;4.47;;;;;;;-2.65;46.89;94069.59;6214004;23;20016;-77
2023/02/11 03:26:32;;;;;;;9.63;5.03;;;;;;;-2.57;46.65;94082.34;6186396;23;20020;-77
2023/02/11 03:29:14;;;;;;;12.23;4.80;;;;;;;-2.59;46.96;94074.84;6213580;23;20433;-76
2023/02/11 03:31:54;;;;;;;9.02;4.05;;;;;;;-2.58;47.02;94073.88;6213563;23;20399;-77
2023/02/11 03:34:32;;;;;;;10.73;4.93;;;;;;;-2.53;46.93;94078.50;6213692;23;20391;-77
2023/02/11 03:37:06;;;;;;;7.68;4.30;;;;;;;-2.57;46.56;94072.09;6213383;23;20013;-77
2023/02/11 03:39:37;;;;;;;11.23;4.28;;;;;;;-2.55;46.63;94070.97;6212239;23;20017;-77
2023/02/11 03:42:05;;;;;;;7.93;4.18;;;;;;;-2.54;46.72;94074.34;6213749;23;20032;-76
2023/02/11 03:44:40;;;;;;;9.73;4.38;;;;;;;-2.56;46.12;94063.47;6186879;23;20008;-75
2023/02/11 03:47:10;;;;;;;8.63;4.53;;;;;;;-2.55;45.66;94054.78;6212777;23;20123;-78
2023/02/11 03:49:39;;;;;;;11.43;4.25;;;;;;;-2.51;45.54;94056.06;6187970;23;20214;-77
2023/02/11 03:52:07;;;;;;;9.00;3.95;;;;;;;-2.55;46.19;94045.31;6187911;23;20062;-77
2023/02/11 03:54:34;;;;;;;8.68;4.25;;;;;;;-2.56;46.59;94048.06;6214016;23;20103;-77
2023/02/11 03:57:01;;;;;;;9.10;4.38;;;;;;;-2.60;46.83;94042.47;6213593;23;20070;-78
2023/02/11 03:59:27;;;;;;;10.45;4.50;;;;;;;-2.53;47.09;94053.66;6187355;23;20000;-77
2023/02/11 04:01:53;;;;;;;9.85;4.70;;;;;;;-2.56;46.36;94048.06;6186725;23;20563;-78
2023/02/11 04:04:19;;;;;;;10.98;4.65;;;;;;;-2.54;47.01;94048.72;6213890;23;20004;-78
2023/02/11 04:06:45;;;;;;;11.27;4.63;;;;;;;-2.56;46.57;94053.22;6213848;23;20009;-77
2023/02/11 04:09:11;;;;;;;11.35;5.15;;;;;;;-2.53;46.63;94047.72;6214882;23;20083;-77
2023/02/11 04:11:37;;;;;;;9.50;4.60;;;;;;;-2.50;46.57;94042.25;6186981;23;20020;-77
2023/02/11 04:14:03;;;;;;;9.23;4.97;;;;;;;-2.49;46.94;94040.50;6214001;23;20001;-78
2023/02/11 04:16:29;;;;;;;10.15;4.63;;;;;;;-2.50;46.22;94044.81;6187232;23;20020;-77
2023/02/11 04:18:55;;;;;;;7.85;4.20;;;;;;;-2.49;46.89;94048.22;6214009;23;20008;-77
2023/02/11 04:21:21;;;;;;;8.80;4.32;;;;;;;-2.50;46.02;94047.38;6213507;23;20017;-77
2023/02/11 04:23:47;;;;;;;7.18;3.80;;;;;;;-2.50;46.44;94042.25;6187507;23;20091;-77
2023/02/11 04:26:12;;;;;;;13.32;4.63;;;;;;;-2.46;46.99;94038.41;6213530;23;20024;-77
2023/02/11 04:28:38;;;;;;;12.05;4.85;;;;;;;-2.45;47.76;94040.00;6201225;23;20050;-77
2023/02/11 04:31:04;;;;;;;8.75;4.53;;;;;;;-2.45;46.97;94032.31;6210981;23;20047;-77
2023/02/11 04:33:29;;;;;;;8.85;4.50;;;;;;;-2.48;46.19;94037.75;6211684;23;20005;-77
2023/02/11 04:35:55;;;;;;;10.55;4.88;;;;;;;-2.46;45.50;94037.59;6211276;23;20016;-77
2023/02/11 04:38:22;;;;;;;9.93;4.97;;;;;;;-2.45;46.03;94034.09;6213393;23;20008;-77
2023/02/11 04:40:49;;;;;;;11.27;4.68;;;;;;;-2.44;46.24;94031.34;6213318;23;20012;-77
2023/02/11 04:43:15;;;;;;;11.68;5.55;;;;;;;-2.44;46.81;94025.41;6213066;23;20062;-77
2023/02/11 04:45:40;;;;;;;11.07;5.65;;;;;;;-2.44;46.84;94017.72;6212874;23;20024;-77
2023/02/11 04:48:06;;;;;;;11.85;5.22;;;;;;;-2.45;46.92;94021.25;6211583;23;20391;-77
2023/02/11 04:50:31;;;;;;;9.65;4.78;;;;;;;-2.45;47.02;94016.94;6211801;23;20040;-77
2023/02/11 04:52:57;;;;;;;11.38;5.43;;;;;;;-2.46;46.56;94023.00;6213371;23;20067;-77
2023/02/11 04:55:23;;;;;;;14.80;5.70;;;;;;;-2.49;47.33;94018.22;6213007;23;20020;-78
2023/02/11 04:57:49;;;;;;;13.57;5.95;;;;;;;-2.45;47.56;94013.56;6212815;23;20007;-77
2023/02/11 05:00:15;;;;;;;10.82;5.60;;;;;;;-2.45;47.08;94016.94;6212177;23;20049;-76
2023/02/11 05:02:40;;;;;;;8.77;4.95;;;;;;;-2.46;47.57;94017.88;6210784;23;20017;-76
2023/02/11 05:05:06;;;;;;;11.15;5.38;;;;;;;-2.45;47.03;94024.63;6186575;23;20433;-77
2023/02/11 05:07:32;;;;;;;11.15;5.38;;;;;;;-2.44;47.09;94018.50;6212640;23;20001;-76
2023/02/11 05:09:58;;;;;;;9.85;5.07;;;;;;;-2.44;46.72;94015.94;6212926;23;20047;-76
2023/02/11 05:12:23;;;;;;;10.23;4.72;;;;;;;-2.43;46.29;94012.44;6212860;23;20003;-76
2023/02/11 05:14:49;;;;;;;11.25;4.82;;;;;;;-2.44;46.38;94010.81;6212607;23;20467;-77
2023/02/11 05:17:14;;;;;;;8.70;4.18;;;;;;;-2.45;44.94;94004.09;6211220;23;20364;-76
2023/02/11 05:19:41;;;;;;;9.32;4.20;;;;;;;-2.49;45.03;93999.47;6212886;23;20039;-77
2023/02/11 05:22:06;;;;;;;9.68;3.90;;;;;;;-2.49;45.30;94000.28;6186015;23;20009;-77
2023/02/11 05:24:32;;;;;;;8.88;4.20;;;;;;;-2.48;44.70;94006.97;6212837;23;20463;-77
2023/02/11 05:26:59;;;;;;;7.18;3.72;;;;;;;-2.47;44.75;94005.25;6213003;23;20011;-77
2023/02/11 05:29:24;;;;;;;7.88;3.78;;;;;;;-2.44;44.13;94000.56;6212150;23;20040;-77
2023/02/11 05:31:50;;;;;;;7.68;4.13;;;;;;;-2.45;44.28;94006.66;6212339;23;20027;-78
2023/02/11 05:34:15;;;;;;;8.15;4.20;;;;;;;-2.46;44.84;94017.88;6161663;23;20369;-77
2023/02/11 05:36:41;;;;;;;7.68;3.75;;;;;;;-2.49;44.66;94007.97;6186066;23;20000;-77
2023/02/11 05:39:07;;;;;;;6.00;3.60;;;;;;;-2.50;45.00;94014.06;6186482;23;20019;-77
2023/02/11 05:41:32;;;;;;;7.65;3.70;;;;;;;-2.52;45.26;94010.88;6211475;23;20062;-76
2023/02/11 05:43:58;;;;;;;8.63;4.30;;;;;;;-2.55;44.85;94006.06;6213076;23;20016;-78
2023/02/11 05:46:24;;;;;;;10.48;4.63;;;;;;;-2.55;45.13;94001.72;6185775;23;20339;-77
2023/02/11 05:48:49;;;;;;;11.55;4.20;;;;;;;-2.53;45.08;94004.13;6211977;23;20016;-77
2023/02/11 05:51:15;;;;;;;9.48;4.45;;;;;;;-2.53;44.86;94006.69;6211470;23;20004;-77
2023/02/11 05:53:40;;;;;;;8.73;3.67;;;;;;;-2.52;44.93;94003.19;6213275;23;20346;-76
2023/02/11 05:56:06;;;;;;;9.43;3.75;;;;;;;-2.52;44.18;93998.84;6213153;23;20028;-77
2023/02/11 05:58:32;;;;;;;8.50;3.78;;;;;;;-2.53;43.99;93996.44;6186297;23;20042;-77
2023/02/11 06:00:57;;;;;;;7.60;3.60;;;;;;;-2.47;43.25;94002.69;6186234;23;20000;-77
2023/02/11 06:03:23;;;;;;;10.07;4.30;;;;;;;-2.46;44.06;94004.25;6211714;23;20009;-77
2023/02/11 06:05:48;;;;;;;8.40;4.43;;;;;;;-2.48;44.09;94003.63;6212398;23;20001;-78
2023/02/11 06:08:14;;;;;;;7.72;3.88;;;;;;;-2.49;44.29;94002.84;6212789;23;20016;-77
2023/02/11 06:10:41;;;;;;;7.47;4.03;;;;;;;-2.49;44.09;93995.16;6213445;23;20004;-77
2023/02/11 06:13:07;;;;;;;7.60;3.70;;;;;;;-2.53;44.60;93997.25;6214918;23;20016;-77
2023/02/11 06:15:33;;;;;;;6.93;3.22;;;;;;;-2.49;44.25;94002.03;6214933;23;20094;-78
2023/02/11 06:17:58;;;;;;;9.80;3.85;;;;;;;-2.48;44.57;93999.28;6191142;23;20092;-77
2023/02/11 06:20:24;;;;;;;7.70;3.58;;;;;;;-2.49;44.49;93994.34;6216252;23;20000;-78
2023/02/11 06:22:50;;;;;;;5.15;3.22;;;;;;;-2.49;44.31;93992.59;6216031;23;20027;-78
2023/02/11 06:25:15;;;;;;;6.00;3.00;;;;;;;-2.51;44.77;93989.38;6217933;23;20005;-77
2023/02/11 06:27:41;;;;;;;5.70;3.25;;;;;;;-2.51;44.09;93986.81;6212642;23;20020;-77
2023/02/11 06:30:39;;;;;;;6.70;3.15;;;;;;;-2.49;44.75;93990.00;6187908;23;20023;-78
2023/02/11 06:33:04;;;;;;;7.40;3.20;;;;;;;-2.49;45.28;93992.59;6219661;23;20012;-78
2023/02/11 06:35:32;;;;;;;6.63;2.85;;;;;;;-2.49;44.71;93996.91;6193531;23;20011;-78
2023/02/11 06:38:01;;;;;;;5.90;2.67;;;;;;;-2.46;44.77;94002.50;6193306;23;20024;-78
2023/02/11 06:40:27;;;;;;;7.32;3.13;;;;;;;-2.41;43.86;94000.25;6168253;23;20027;-78
2023/02/11 06:42:53;;;;;;;4.55;2.63;;;;;;;-2.35;44.04;93989.28;6191575;23;20381;-78
2023/02/11 06:45:20;;;;;;;5.68;2.72;;;;;;;-2.27;43.69;93983.31;6192579;23;20075;-78
2023/02/11 06:47:46;;;;;;;6.95;2.95;;;;;;;-2.13;43.72;93981.78;6217303;23;20047;-78
2023/02/11 06:50:13;;;;;;;7.32;2.97;;;;;;;-1.85;42.84;93983.78;6217661;23;20001;-78
2023/02/11 06:52:39;;;;;;;6.85;3.10;;;;;;;-1.34;42.94;93979.63;6214464;23;20012;-79
2023/02/11 06:55:05;;;;;;;7.65;3.22;;;;;;;-0.95;41.72;93972.63;6213753;23;20384;-77
2023/02/11 06:57:31;;;;;;;7.93;3.50;;;;;;;-0.68;41.33;93971.94;6213960;23;20020;-77
2023/02/11 06:59:56;;;;;;;5.90;3.15;;;;;;;0.31;40.50;93985.97;6192130;23;20070;-75
2023/02/11 07:02:22;;;;;;;5.47;3.10;;;;;;;1.47;39.00;93975.94;6213452;23;20016;-78
2023/02/11 07:04:48;;;;;;;6.32;3.45;;;;;;;2.46;36.72;93962.38;6213812;23;20606;-78
2023/02/11 07:07:14;;;;;;;7.82;3.55;;;;;;;3.00;35.68;93970.06;6212969;23;20016;-78
2023/02/11 07:09:40;;;;;;;6.28;3.00;;;;;;;3.12;35.18;93969.22;6213963;23;20032;-78
2023/02/11 07:12:08;;;;;;;5.57;3.08;;;;;;;3.67;34.93;93974.00;6185547;23;20009;-78
2023/02/11 07:14:33;;;;;;;6.50;3.13;;;;;;;4.37;34.40;93971.38;6187141;23;20394;-77
2023/02/11 07:16:59;;;;;;;5.53;2.85;;;;;;;5.15;33.08;93972.66;6212691;23;20036;-78
2023/02/11 07:19:24;;;;;;;6.90;3.13;;;;;;;6.00;32.06;93987.47;6186488;23;20020;-78
2023/02/11 07:21:50;;;;;;;5.43;2.92;;;;;;;6.99;30.87;93976.53;6212518;23;20071;-79
2023/02/11 07:24:16;;;;;;;8.35;3.30;;;;;;;7.81;29.10;93977.41;6188784;23;20082;-79
2023/02/11 07:26:41;;;;;;;7.00;3.45;;;;;;;8.57;29.08;93979.81;6215126;23;20023;-78
2023/02/11 07:29:07;;;;;;;6.82;3.22;;;;;;;9.22;27.35;93978.41;6211749;23;20455;-78
2023/02/11 07:31:33;;;;;;;6.53;3.78;;;;;;;9.87;26.50;93985.50;6213808;23;20044;-78
2023/02/11 07:34:00;;;;;;;6.50;3.70;;;;;;;10.67;25.32;93982.34;6212506;23;20008;-77
2023/02/11 07:36:28;;;;;;;6.07;3.35;;;;;;;11.39;24.73;93981.81;6214090;23;20017;-77
2023/02/11 07:38:54;;;;;;;6.72;3.92;;;;;;;12.00;23.74;93980.50;6184317;23;20070;-78
2023/02/11 07:41:21;;;;;;;6.32;3.72;;;;;;;11.88;22.60;93978.91;6213674;23;20325;-79
2023/02/11 07:43:48;;;;;;;6.40;3.50;;;;;;;12.17;22.58;93981.09;6215041;23;20016;-78
2023/02/11 07:46:16;;;;;;;5.30;3.50;;;;;;;12.55;22.08;93976.44;6214566;23;20088;-78
2023/02/11 07:48:42;;;;;;;6.00;3.60;;;;;;;13.05;20.95;93985.34;6215575;23;20001;-78
2023/02/11 07:51:11;;;;;;;6.97;3.90;;;;;;;13.58;20.29;93992.13;6213151;23;20133;-79
2023/02/11 07:53:37;;;;;;;5.93;3.50;;;;;;;14.05;20.59;93989.06;6188095;23;20088;-77
2023/02/11 07:56:04;;;;;;;11.07;6.07;;;;;;;14.96;21.07;93991.41;6187176;23;20017;-78
2023/02/11 07:58:30;;;;;;;10.30;5.50;;;;;;;14.15;22.32;93986.38;6187184;23;20007;-77
2023/02/11 08:01:02;;;;;;;13.15;6.13;;;;;;;14.43;21.30;93992.00;6213755;23;20127;-78
2023/02/11 08:03:28;;;;;;;11.82;5.93;;;;;;;13.68;22.64;93986.84;6213227;23;20052;-78
2023/02/11 08:05:54;;;;;;;9.10;5.50;;;;;;;13.01;23.04;93984.31;6187057;23;20079;-78
2023/02/11 08:08:20;;;;;;;9.48;5.57;;;;;;;12.86;24.00;93986.97;6213324;23;20017;-78
2023/02/11 08:10:46;;;;;;;12.30;7.15;;;;;;;13.38;22.74;93991.13;6213223;23;20103;-78
2023/02/11 08:13:11;;;;;;;12.20;7.20;;;;;;;13.28;23.01;93994.59;6214168;23;20036;-77
2023/02/11 08:15:37;;;;;;;12.35;7.13;;;;;;;12.47;24.62;93990.06;6186589;23;20452;-78
2023/02/11 08:18:02;;;;;;;12.88;7.38;;;;;;;12.06;24.43;93988.13;6162125;23;20023;-77
2023/02/11 08:20:28;;;;;;;13.25;7.00;;;;;;;11.87;25.15;93994.88;6213348;23;20431;-78
2023/02/11 08:22:54;;;;;;;15.25;8.52;;;;;;;11.17;26.27;93989.03;6185186;23;20020;-77
2023/02/11 08:25:19;;;;;;;13.32;7.68;;;;;;;10.60;26.91;93986.00;6213425;23;20005;-78
2023/02/11 08:27:45;;;;;;;13.02;6.65;;;;;;;10.88;25.70;93989.34;6173166;23;20024;-77
2023/02/11 08:30:11;;;;;;;8.48;5.20;;;;;;;11.10;22.88;93989.25;6210761;23;20021;-77
2023/02/11 08:32:38;;;;;;;9.43;5.22;;;;;;;11.65;23.40;93990.59;6213743;23;20009;-77
2023/02/11 08:35:06;;;;;;;12.32;5.63;;;;;;;11.85;24.49;93989.88;6213619;23;20011;-78
2023/02/11 08:37:32;;;;;;;10.77;5.80;;;;;;;11.06;24.88;94001.28;6212402;23;20017;-77
2023/02/11 08:39:58;;;;;;;9.43;4.82;;;;;;;10.40;24.68;94001.50;6213077;23;20009;-78
2023/02/11 08:42:24;;;;;;;12.65;4.82;;;;;;;10.88;25.22;93980.72;6210631;23;20013;-77
2023/02/11 08:44:49;;;;;;;10.90;5.20;;;;;;;10.93;24.85;93984.13;6210952;23;20076;-77
2023/02/11 08:47:15;;;;;;;10.88;5.82;;;;;;;10.84;25.54;93983.03;6210747;23;20043;-78
2023/02/11 08:49:41;;;;;;;10.85;5.00;;;;;;;11.10;23.92;93975.34;6209896;23;20008;-78
2023/02/11 08:52:07;;;;;;;8.77;4.82;;;;;;;10.58;25.07;93988.06;6210085;23;20019;-77
2023/02/11 08:54:33;;;;;;;12.93;5.75;;;;;;;9.75;27.12;93985.63;6210736;23;20078;-76
2023/02/11 08:57:00;;;;;;;9.48;5.00;;;;;;;9.56;26.97;93977.28;6212035;23;20012;-77
2023/02/11 08:59:26;;;;;;;12.70;5.95;;;;;;;9.01;27.59;93983.38;6212364;23;20425;-77
2023/02/11 09:01:52;;;;;;;9.93;4.43;;;;;;;9.31;25.63;93979.59;6211138;23;20015;-77
2023/02/11 09:04:18;;;;;;;8.10;4.85;;;;;;;8.81;26.23;93978.63;6211592;23;20001;-77
2023/02/11 09:06:44;;;;;;;14.35;5.63;;;;;;;8.29;29.85;93989.25;6210587;23;20017;-76
2023/02/11 09:09:12;;;;;;;13.80;6.82;;;;;;;7.23;31.09;93992.16;6212074;23;19996;-76
2023/02/11 09:11:40;;;;;;;10.80;5.80;;;;;;;7.14;31.10;93983.91;6211068;23;20009;-76
2023/02/11 09:14:06;;;;;;;13.15;7.22;;;;;;;6.99;33.03;93993.97;6211824;23;20333;-77
2023/02/11 09:16:35;;;;;;;12.45;5.82;;;;;;;6.55;32.21;94004.69;6212615;23;20024;-80
2023/02/11 09:19:03;;;;;;;9.43;4.60;;;;;;;6.39;29.93;93997.53;6214830;23;20017;-78
2023/02/11 09:21:29;;;;;;;7.38;4.30;;;;;;;6.40;28.48;93999.91;6211383;23;20038;-78
2023/02/11 09:23:55;;;;;;;11.90;6.32;;;;;;;6.50;33.04;93999.34;6212277;23;20104;-77
2023/02/11 09:26:27;;;;;;;13.15;6.18;;;;;;;6.32;33.62;94007.22;6211276;23;20020;-78
2023/02/11 09:28:53;;;;;;;11.98;5.65;;;;;;;6.27;31.75;93999.31;6212229;23;20040;-78
2023/02/11 09:31:22;;;;;;;14.40;6.40;;;;;;;6.33;31.85;93998.44;6210325;23;20020;-78
2023/02/11 09:33:52;;;;;;;11.05;5.35;;;;;;;6.37;30.20;94005.56;6211134;23;20016;-78
2023/02/11 09:36:23;;;;;;;12.90;5.10;;;;;;;6.29;30.35;94007.69;6212767;23;20009;-78
2023/02/11 09:38:49;;;;;;;9.65;4.95;;;;;;;6.30;30.50;94001.47;6186287;23;20009;-78
2023/02/11 09:41:56;;;;;;;10.55;5.45;;;;;;;6.43;29.63;94006.47;6212125;23;20127;-77
2023/02/11 09:44:26;;;;;;;11.82;5.53;;;;;;;6.39;31.31;94013.91;6203086;23;20027;-77
2023/02/11 09:47:05;;;;;;;8.32;4.55;;;;;;;6.39;33.63;94008.72;6213665;23;20072;-77
2023/02/11 09:49:47;;;;;;;9.43;5.10;;;;;;;6.32;32.18;94005.41;6211480;23;20285;-78
2023/02/11 09:52:58;;;;;;;9.20;5.07;;;;;;;6.13;30.12;94020.28;6213763;23;20451;-77
2023/02/11 09:55:33;;;;;;;8.00;4.13;;;;;;;6.15;28.82;94027.88;6209746;23;20394;-77
2023/02/11 09:58:03;;;;;;;9.52;5.13;;;;;;;6.40;30.25;94020.72;6211500;23;20039;-77
2023/02/11 10:00:32;;;;;;;9.27;4.88;;;;;;;6.60;31.11;94023.03;6211286;23;20313;-77
2023/02/11 10:03:06;;;;;;;10.30;5.53;;;;;;;6.77;29.85;94015.34;6212285;23;20040;-77
2023/02/11 10:05:44;;;;;;;9.88;5.22;;;;;;;6.73;30.84;94024.63;6211567;23;20009;-76
2023/02/11 10:08:40;;;;;;;11.02;4.65;;;;;;;6.93;31.96;94028.72;6214205;23;20063;-78
2023/02/11 10:11:15;;;;;;;14.15;4.97;;;;;;;7.25;30.60;94016.16;6212022;23;20013;-77
2023/02/11 10:13:50;;;;;;;9.20;4.72;;;;;;;7.67;29.91;94019.38;6213796;23;20096;-77
2023/02/11 10:16:19;;;;;;;8.02;4.85;;;;;;;7.96;30.18;94024.63;6212031;23;20035;-77
2023/02/11 10:19:01;;;;;;;9.98;5.43;;;;;;;8.00;29.75;94017.16;6214402;23;20075;-77
2023/02/11 10:21:49;;;;;;;10.82;5.00;;;;;;;7.94;29.17;94024.06;6211128;23;20091;-77
2023/02/11 10:24:16;;;;;;;10.05;5.88;;;;;;;7.63;31.32;94025.28;6213272;23;20051;-77
2023/02/11 10:26:43;;;;;;;12.30;6.55;;;;;;;7.39;32.04;94025.34;6211828;23;20429;-77
2023/02/11 10:29:43;;;;;;;11.57;5.80;;;;;;;7.33;29.99;94025.44;6212134;23;20401;-77
2023/02/11 10:32:50;;;;;;;8.95;4.90;;;;;;;7.78;29.34;94030.03;6212866;23;20107;-77
2023/02/11 10:35:20;;;;;;;8.77;4.65;;;;;;;7.96;29.08;94026.47;6212195;23;20068;-78
2023/02/11 10:37:46;;;;;;;10.55;5.15;;;;;;;8.00;28.13;94028.38;6187101;23;20345;-77
2023/02/11 10:40:32;;;;;;;12.02;5.18;;;;;;;8.20;29.04;94019.34;6216860;23;20028;-77
2023/02/11 10:43:02;;;;;;;10.88;5.15;;;;;;;8.84;28.62;94017.31;6213087;23;20020;-80
2023/02/11 10:45:40;;;;;;;10.98;5.43;;;;;;;9.55;28.04;94022.00;6211764;23;20122;-80
2023/02/11 10:48:36;;;;;;;10.25;5.07;;;;;;;10.44;27.25;94018.28;6188621;23;20518;-78
2023/02/11 10:51:22;;;;;;;8.68;4.80;;;;;;;11.10;26.65;94014.66;6187197;23;20009;-80
2023/02/11 10:54:13;;;;;;;10.75;4.60;;;;;;;11.57;25.00;94009.44;6186834;23;20024;-77
2023/02/11 10:56:53;;;;;;;7.38;3.58;;;;;;;12.07;22.27;94009.94;6211523;23;20429;-79
2023/02/11 10:59:38;;;;;;;14.60;7.78;;;;;;;10.79;27.39;94002.13;6184936;23;20047;-78
2023/02/11 11:02:30;;;;;;;13.82;6.95;;;;;;;10.12;27.73;94003.28;6213507;23;20013;-78
2023/02/11 11:04:59;;;;;;;10.70;5.78;;;;;;;10.47;27.48;94002.13;6213782;23;20013;-78
2023/02/11 11:07:28;;;;;;;16.45;7.72;;;;;;;9.95;30.10;94005.19;6213166;23;20007;-77
2023/02/11 11:10:02;;;;;;;14.70;6.82;;;;;;;9.52;29.61;93996.31;6186795;23;20083;-77
2023/02/11 11:12:45;;;;;;;16.10;7.07;;;;;;;9.63;30.91;93992.78;6213840;23;20019;-80
2023/02/11 11:15:23;;;;;;;12.70;7.00;;;;;;;10.08;28.51;93989.13;6221325;23;20383;-81
2023/02/11 11:18:09;;;;;;;8.95;5.22;;;;;;;10.48;26.70;93987.97;6222037;23;20081;-81
2023/02/11 11:20:35;;;;;;;11.93;6.57;;;;;;;10.04;28.71;93988.03;6204249;23;20013;-80
2023/02/11 11:23:07;;;;;;;13.32;5.85;;;;;;;9.63;30.02;93977.09;6194148;23;20210;-80
2023/02/11 11:25:34;;;;;;;11.63;6.50;;;;;;;9.25;31.46;93970.09;6192178;23;20043;-80
2023/02/11 11:28:00;;;;;;;15.93;7.90;;;;;;;9.20;30.72;93967.41;6218278;23;20072;-78
2023/02/11 11:30:38;;;;;;;13.43;6.45;;;;;;;9.32;30.02;93966.28;6192373;23;20078;-80
2023/02/11 11:33:04;;;;;;;10.10;5.75;;;;;;;8.91;29.04;93955.25;6215920;23;20375;-79
2023/02/11 11:35:32;;;;;;;14.30;6.68;;;;;;;8.96;29.62;93967.59;6192012;23;20344;-80
2023/02/11 11:38:00;;;;;;;12.27;6.60;;;;;;;9.31;29.34;93948.22;6218998;23;20325;-83
2023/02/11 11:40:31;;;;;;;11.45;5.13;;;;;;;9.86;26.00;93954.34;6219456;23;20015;-80
2023/02/11 11:43:02;;;;;;;10.45;5.53;;;;;;;9.88;27.57;93949.66;6218745;23;20352;-81
2023/02/11 11:45:29;;;;;;;13.73;6.63;;;;;;;9.77;28.22;93951.38;6219336;23;20079;-81
2023/02/11 11:48:11;;;;;;;11.60;6.22;;;;;;;9.29;27.94;93955.50;6192668;23;20039;-81